sensor_id;sensor_type;location;lat;lon;timestamp;P1;durP1;ratioP1;P2;durP2;ratioP2
76731;SDS011;65656;51.130;13.658;2023-06-10T00:03:46;12.23;;;11.23;;
76731;SDS011;65656;51.130;13.658;2023-06-10T00:07:49;13.80;;;12.77;;
76731;SDS011;65656;51.130;13.658;2023-06-10T00:11:50;12.82;;;11.73;;
76731;SDS011;65656;51.130;13.658;2023-06-10T00:15:52;9.55;;;8.57;;
76731;SDS011;65656;51.130;13.658;2023-06-10T00:19:53;13.38;;;12.18;;
76731;SDS011;65656;51.130;13.658;2023-06-10T00:23:56;11.23;;;10.15;;
76731;SDS011;65656;51.130;13.658;2023-06-10T00:27:58;12.23;;;11.00;;
76731;SDS011;65656;51.130;13.658;2023-06-10T00:31:59;14.07;;;12.77;;
76731;SDS011;65656;51.130;13.658;2023-06-10T00:36:01;11.38;;;10.32;;
76731;SDS011;65656;51.130;13.658;2023-06-10T00:40:05;11.25;;;10.30;;
76731;SDS011;65656;51.130;13.658;2023-06-10T00:44:07;12.18;;;11.18;;
76731;SDS011;65656;51.130;13.658;2023-06-10T00:48:08;11.95;;;10.82;;
76731;SDS011;65656;51.130;13.658;2023-06-10T00:52:11;11.73;;;10.55;;
76731;SDS011;65656;51.130;13.658;2023-06-10T00:56:14;12.38;;;10.85;;
76731;SDS011;65656;51.130;13.658;2023-06-10T01:00:16;10.77;;;9.77;;
76731;SDS011;65656;51.130;13.658;2023-06-10T01:04:18;14.88;;;13.07;;
76731;SDS011;65656;51.130;13.658;2023-06-10T01:08:21;13.02;;;11.90;;
76731;SDS011;65656;51.130;13.658;2023-06-10T01:12:33;14.75;;;13.35;;
76731;SDS011;65656;51.130;13.658;2023-06-10T01:16:40;16.95;;;15.43;;
76731;SDS011;65656;51.130;13.658;2023-06-10T01:20:42;13.07;;;11.77;;
76731;SDS011;65656;51.130;13.658;2023-06-10T01:24:45;15.73;;;13.55;;
76731;SDS011;65656;51.130;13.658;2023-06-10T01:28:47;15.68;;;14.20;;
76731;SDS011;65656;51.130;13.658;2023-06-10T01:32:52;15.95;;;14.40;;
76731;SDS011;65656;51.130;13.658;2023-06-10T01:36:55;15.48;;;14.15;;
76731;SDS011;65656;51.130;13.658;2023-06-10T01:41:00;16.25;;;14.75;;
76731;SDS011;65656;51.130;13.658;2023-06-10T01:45:03;20.42;;;18.55;;
76731;SDS011;65656;51.130;13.658;2023-06-10T01:49:05;17.55;;;15.90;;
76731;SDS011;65656;51.130;13.658;2023-06-10T01:53:06;13.48;;;12.25;;
76731;SDS011;65656;51.130;13.658;2023-06-10T01:57:09;15.48;;;13.63;;
76731;SDS011;65656;51.130;13.658;2023-06-10T02:01:11;18.58;;;16.90;;
76731;SDS011;65656;51.130;13.658;2023-06-10T02:05:12;19.42;;;16.63;;
76731;SDS011;65656;51.130;13.658;2023-06-10T02:09:14;15.77;;;14.25;;
76731;SDS011;65656;51.130;13.658;2023-06-10T02:13:17;16.02;;;14.30;;
76731;SDS011;65656;51.130;13.658;2023-06-10T02:17:18;22.83;;;20.58;;
76731;SDS011;65656;51.130;13.658;2023-06-10T02:21:20;19.25;;;17.55;;
76731;SDS011;65656;51.130;13.658;2023-06-10T02:25:21;15.98;;;14.65;;
76731;SDS011;65656;51.130;13.658;2023-06-10T02:29:24;15.10;;;13.60;;
76731;SDS011;65656;51.130;13.658;2023-06-10T02:33:25;17.02;;;15.23;;
76731;SDS011;65656;51.130;13.658;2023-06-10T02:37:27;16.80;;;15.35;;
76731;SDS011;65656;51.130;13.658;2023-06-10T02:41:28;16.75;;;15.07;;
76731;SDS011;65656;51.130;13.658;2023-06-10T02:45:31;17.23;;;15.63;;
76731;SDS011;65656;51.130;13.658;2023-06-10T02:49:33;17.42;;;14.77;;
76731;SDS011;65656;51.130;13.658;2023-06-10T02:53:34;18.10;;;16.20;;
76731;SDS011;65656;51.130;13.658;2023-06-10T02:57:36;16.58;;;14.98;;
76731;SDS011;65656;51.130;13.658;2023-06-10T03:01:38;15.88;;;14.13;;
76731;SDS011;65656;51.130;13.658;2023-06-10T03:05:40;18.13;;;16.42;;
76731;SDS011;65656;51.130;13.658;2023-06-10T03:09:41;15.45;;;13.95;;
76731;SDS011;65656;51.130;13.658;2023-06-10T03:13:46;20.25;;;18.67;;
76731;SDS011;65656;51.130;13.658;2023-06-10T03:17:48;18.95;;;17.13;;
76731;SDS011;65656;51.130;13.658;2023-06-10T03:22:07;19.33;;;17.40;;
76731;SDS011;65656;51.130;13.658;2023-06-10T03:26:10;14.90;;;13.48;;
76731;SDS011;65656;51.130;13.658;2023-06-10T03:30:12;16.33;;;14.82;;
76731;SDS011;65656;51.130;13.658;2023-06-10T03:34:15;19.48;;;17.58;;
76731;SDS011;65656;51.130;13.658;2023-06-10T03:38:16;16.20;;;14.60;;
76731;SDS011;65656;51.130;13.658;2023-06-10T03:42:18;18.13;;;16.52;;
76731;SDS011;65656;51.130;13.658;2023-06-10T03:46:19;16.33;;;14.82;;
76731;SDS011;65656;51.130;13.658;2023-06-10T03:50:22;14.77;;;13.27;;
76731;SDS011;65656;51.130;13.658;2023-06-10T03:54:24;17.60;;;15.98;;
76731;SDS011;65656;51.130;13.658;2023-06-10T03:58:25;17.15;;;15.57;;
76731;SDS011;65656;51.130;13.658;2023-06-10T04:02:27;19.48;;;17.73;;
76731;SDS011;65656;51.130;13.658;2023-06-10T04:06:30;20.58;;;18.88;;
76731;SDS011;65656;51.130;13.658;2023-06-10T04:10:31;19.13;;;17.13;;
76731;SDS011;65656;51.130;13.658;2023-06-10T04:14:32;20.90;;;19.08;;
76731;SDS011;65656;51.130;13.658;2023-06-10T04:18:34;18.70;;;16.88;;
76731;SDS011;65656;51.130;13.658;2023-06-10T04:22:37;19.95;;;18.13;;
76731;SDS011;65656;51.130;13.658;2023-06-10T04:26:38;22.10;;;19.98;;
76731;SDS011;65656;51.130;13.658;2023-06-10T04:30:40;19.05;;;17.08;;
76731;SDS011;65656;51.130;13.658;2023-06-10T04:34:41;20.15;;;18.02;;
76731;SDS011;65656;51.130;13.658;2023-06-10T04:38:44;23.60;;;21.58;;
76731;SDS011;65656;51.130;13.658;2023-06-10T04:42:45;20.08;;;18.10;;
76731;SDS011;65656;51.130;13.658;2023-06-10T04:46:47;22.98;;;20.92;;
76731;SDS011;65656;51.130;13.658;2023-06-10T04:50:49;20.08;;;18.15;;
76731;SDS011;65656;51.130;13.658;2023-06-10T04:54:52;22.98;;;20.95;;
76731;SDS011;65656;51.130;13.658;2023-06-10T04:58:53;22.20;;;20.15;;
76731;SDS011;65656;51.130;13.658;2023-06-10T05:02:55;20.25;;;18.25;;
76731;SDS011;65656;51.130;13.658;2023-06-10T05:06:56;19.38;;;17.48;;
76731;SDS011;65656;51.130;13.658;2023-06-10T05:10:59;19.17;;;17.30;;
76731;SDS011;65656;51.130;13.658;2023-06-10T05:15:00;18.08;;;16.23;;
76731;SDS011;65656;51.130;13.658;2023-06-10T05:19:02;23.95;;;22.05;;
76731;SDS011;65656;51.130;13.658;2023-06-10T05:23:08;17.60;;;15.82;;
76731;SDS011;65656;51.130;13.658;2023-06-10T05:27:10;20.30;;;18.40;;
76731;SDS011;65656;51.130;13.658;2023-06-10T05:31:12;20.77;;;19.05;;
76731;SDS011;65656;51.130;13.658;2023-06-10T05:35:13;15.93;;;14.43;;
76731;SDS011;65656;51.130;13.658;2023-06-10T05:39:15;15.27;;;13.80;;
76731;SDS011;65656;51.130;13.658;2023-06-10T05:43:18;15.40;;;13.45;;
76731;SDS011;65656;51.130;13.658;2023-06-10T05:47:19;17.50;;;15.77;;
76731;SDS011;65656;51.130;13.658;2023-06-10T05:51:21;16.70;;;15.23;;
76731;SDS011;65656;51.130;13.658;2023-06-10T05:55:22;17.05;;;15.43;;
76731;SDS011;65656;51.130;13.658;2023-06-10T05:59:25;16.40;;;14.70;;
76731;SDS011;65656;51.130;13.658;2023-06-10T06:03:26;16.27;;;14.75;;
76731;SDS011;65656;51.130;13.658;2023-06-10T06:07:28;16.27;;;14.77;;
76731;SDS011;65656;51.130;13.658;2023-06-10T06:11:30;15.93;;;14.50;;
76731;SDS011;65656;51.130;13.658;2023-06-10T06:15:33;15.88;;;14.57;;
76731;SDS011;65656;51.130;13.658;2023-06-10T06:19:35;12.98;;;11.73;;
76731;SDS011;65656;51.130;13.658;2023-06-10T06:23:36;12.55;;;11.25;;
76731;SDS011;65656;51.130;13.658;2023-06-10T06:27:38;12.25;;;10.93;;
76731;SDS011;65656;51.130;13.658;2023-06-10T06:31:41;12.23;;;11.13;;
76731;SDS011;65656;51.130;13.658;2023-06-10T06:35:42;13.15;;;12.05;;
76731;SDS011;65656;51.130;13.658;2023-06-10T06:39:44;12.35;;;11.10;;
76731;SDS011;65656;51.130;13.658;2023-06-10T06:43:45;12.43;;;11.23;;
76731;SDS011;65656;51.130;13.658;2023-06-10T06:47:48;11.20;;;10.25;;
76731;SDS011;65656;51.130;13.658;2023-06-10T06:51:50;12.95;;;11.20;;
76731;SDS011;65656;51.130;13.658;2023-06-10T06:55:51;12.32;;;11.23;;
76731;SDS011;65656;51.130;13.658;2023-06-10T06:59:53;10.95;;;9.85;;
76731;SDS011;65656;51.130;13.658;2023-06-10T07:03:56;10.45;;;9.40;;
76731;SDS011;65656;51.130;13.658;2023-06-10T07:07:57;9.88;;;9.00;;
76731;SDS011;65656;51.130;13.658;2023-06-10T07:11:59;11.45;;;10.32;;
76731;SDS011;65656;51.130;13.658;2023-06-10T07:16:00;10.20;;;9.27;;
76731;SDS011;65656;51.130;13.658;2023-06-10T07:20:04;9.82;;;8.82;;
76731;SDS011;65656;51.130;13.658;2023-06-10T07:24:06;12.27;;;9.60;;
76731;SDS011;65656;51.130;13.658;2023-06-10T07:28:08;9.82;;;8.88;;
76731;SDS011;65656;51.130;13.658;2023-06-10T07:32:09;10.20;;;9.20;;
76731;SDS011;65656;51.130;13.658;2023-06-10T07:36:12;10.02;;;9.13;;
76731;SDS011;65656;51.130;13.658;2023-06-10T07:40:14;9.63;;;8.77;;
76731;SDS011;65656;51.130;13.658;2023-06-10T07:44:15;11.88;;;9.93;;
76731;SDS011;65656;51.130;13.658;2023-06-10T07:48:16;12.15;;;11.05;;
76731;SDS011;65656;51.130;13.658;2023-06-10T07:52:19;8.73;;;7.90;;
76731;SDS011;65656;51.130;13.658;2023-06-10T07:56:21;8.70;;;7.78;;
76731;SDS011;65656;51.130;13.658;2023-06-10T08:00:23;8.75;;;7.95;;
76731;SDS011;65656;51.130;13.658;2023-06-10T08:04:25;9.90;;;8.90;;
76731;SDS011;65656;51.130;13.658;2023-06-10T08:08:27;10.38;;;9.38;;
76731;SDS011;65656;51.130;13.658;2023-06-10T08:12:29;13.30;;;9.57;;
76731;SDS011;65656;51.130;13.658;2023-06-10T08:16:31;8.50;;;7.70;;
76731;SDS011;65656;51.130;13.658;2023-06-10T08:20:32;9.77;;;8.90;;
76731;SDS011;65656;51.130;13.658;2023-06-10T08:24:35;10.15;;;8.45;;
76731;SDS011;65656;51.130;13.658;2023-06-10T08:28:37;8.73;;;7.90;;
76731;SDS011;65656;51.130;13.658;2023-06-10T08:32:38;10.32;;;9.40;;
76731;SDS011;65656;51.130;13.658;2023-06-10T08:36:40;11.50;;;8.27;;
76731;SDS011;65656;51.130;13.658;2023-06-10T08:40:43;10.75;;;9.50;;
76731;SDS011;65656;51.130;13.658;2023-06-10T08:44:44;10.00;;;9.02;;
76731;SDS011;65656;51.130;13.658;2023-06-10T08:48:47;10.70;;;7.65;;
76731;SDS011;65656;51.130;13.658;2023-06-10T08:52:54;9.82;;;8.80;;
76731;SDS011;65656;51.130;13.658;2023-06-10T09:01:02;9.20;;;8.40;;
76731;SDS011;65656;51.130;13.658;2023-06-10T09:05:04;10.27;;;9.27;;
76731;SDS011;65656;51.130;13.658;2023-06-10T09:09:06;8.43;;;7.63;;
76731;SDS011;65656;51.130;13.658;2023-06-10T09:13:09;8.27;;;7.55;;
76731;SDS011;65656;51.130;13.658;2023-06-10T09:17:11;8.65;;;7.85;;
76731;SDS011;65656;51.130;13.658;2023-06-10T09:21:12;8.93;;;6.82;;
76731;SDS011;65656;51.130;13.658;2023-06-10T09:25:14;9.02;;;8.10;;
76731;SDS011;65656;51.130;13.658;2023-06-10T09:29:17;8.10;;;7.38;;
76731;SDS011;65656;51.130;13.658;2023-06-10T09:33:18;8.80;;;8.10;;
76731;SDS011;65656;51.130;13.658;2023-06-10T09:37:20;8.18;;;7.43;;
76731;SDS011;65656;51.130;13.658;2023-06-10T09:41:25;6.22;;;5.55;;
76731;SDS011;65656;51.130;13.658;2023-06-10T09:45:34;8.05;;;7.25;;
76731;SDS011;65656;51.130;13.658;2023-06-10T09:49:37;8.45;;;7.50;;
76731;SDS011;65656;51.130;13.658;2023-06-10T09:53:38;6.18;;;5.35;;
76731;SDS011;65656;51.130;13.658;2023-06-10T09:57:40;11.30;;;6.47;;
76731;SDS011;65656;51.130;13.658;2023-06-10T10:01:43;7.70;;;7.00;;
76731;SDS011;65656;51.130;13.658;2023-06-10T10:05:44;8.07;;;7.32;;
76731;SDS011;65656;51.130;13.658;2023-06-10T10:09:46;9.65;;;8.90;;
76731;SDS011;65656;51.130;13.658;2023-06-10T10:13:48;9.00;;;8.20;;
76731;SDS011;65656;51.130;13.658;2023-06-10T10:17:53;9.48;;;8.68;;
76731;SDS011;65656;51.130;13.658;2023-06-10T10:22:03;8.20;;;6.00;;
76731;SDS011;65656;51.130;13.658;2023-06-10T10:26:09;8.23;;;7.50;;
76731;SDS011;65656;51.130;13.658;2023-06-10T10:30:12;7.50;;;6.82;;
76731;SDS011;65656;51.130;13.658;2023-06-10T10:34:18;12.68;;;8.10;;
76731;SDS011;65656;51.130;13.658;2023-06-10T10:38:25;9.57;;;8.77;;
76731;SDS011;65656;51.130;13.658;2023-06-10T10:42:27;8.32;;;7.63;;
76731;SDS011;65656;51.130;13.658;2023-06-10T10:46:29;9.95;;;8.95;;
76731;SDS011;65656;51.130;13.658;2023-06-10T10:50:32;11.00;;;9.50;;
76731;SDS011;65656;51.130;13.658;2023-06-10T10:54:34;11.43;;;10.35;;
76731;SDS011;65656;51.130;13.658;2023-06-10T10:58:36;8.80;;;7.93;;
76731;SDS011;65656;51.130;13.658;2023-06-10T11:02:40;8.00;;;6.90;;
76731;SDS011;65656;51.130;13.658;2023-06-10T11:06:52;7.38;;;6.68;;
76731;SDS011;65656;51.130;13.658;2023-06-10T11:10:54;9.77;;;7.07;;
76731;SDS011;65656;51.130;13.658;2023-06-10T11:14:56;8.30;;;7.25;;
76731;SDS011;65656;51.130;13.658;2023-06-10T11:18:58;8.30;;;7.60;;
76731;SDS011;65656;51.130;13.658;2023-06-10T11:23:01;8.23;;;7.43;;
76731;SDS011;65656;51.130;13.658;2023-06-10T11:27:14;7.80;;;6.97;;
76731;SDS011;65656;51.130;13.658;2023-06-10T11:31:18;7.57;;;6.78;;
76731;SDS011;65656;51.130;13.658;2023-06-10T11:35:21;8.13;;;7.22;;
76731;SDS011;65656;51.130;13.658;2023-06-10T11:39:26;7.15;;;5.82;;
76731;SDS011;65656;51.130;13.658;2023-06-10T11:43:27;6.82;;;5.78;;
76731;SDS011;65656;51.130;13.658;2023-06-10T11:47:31;8.23;;;7.10;;
76731;SDS011;65656;51.130;13.658;2023-06-10T11:51:33;7.57;;;6.80;;
76731;SDS011;65656;51.130;13.658;2023-06-10T11:55:43;9.35;;;8.18;;
76731;SDS011;65656;51.130;13.658;2023-06-10T11:59:46;13.32;;;7.57;;
76731;SDS011;65656;51.130;13.658;2023-06-10T12:03:48;7.40;;;6.70;;
76731;SDS011;65656;51.130;13.658;2023-06-10T12:08:09;7.78;;;7.07;;
76731;SDS011;65656;51.130;13.658;2023-06-10T12:12:13;9.02;;;7.97;;
76731;SDS011;65656;51.130;13.658;2023-06-10T12:16:15;9.75;;;8.35;;
76731;SDS011;65656;51.130;13.658;2023-06-10T12:20:24;9.13;;;8.02;;
76731;SDS011;65656;51.130;13.658;2023-06-10T12:24:26;13.07;;;9.00;;
76731;SDS011;65656;51.130;13.658;2023-06-10T12:28:29;8.77;;;7.88;;
76731;SDS011;65656;51.130;13.658;2023-06-10T12:32:37;7.97;;;7.15;;
76731;SDS011;65656;51.130;13.658;2023-06-10T12:36:40;8.88;;;8.10;;
76731;SDS011;65656;51.130;13.658;2023-06-10T12:40:49;8.65;;;7.68;;
76731;SDS011;65656;51.130;13.658;2023-06-10T12:44:54;7.22;;;6.25;;
76731;SDS011;65656;51.130;13.658;2023-06-10T12:48:55;6.68;;;5.93;;
76731;SDS011;65656;51.130;13.658;2023-06-10T12:52:57;7.43;;;6.25;;
76731;SDS011;65656;51.130;13.658;2023-06-10T12:56:58;5.93;;;5.38;;
76731;SDS011;65656;51.130;13.658;2023-06-10T13:01:01;6.10;;;5.15;;
76731;SDS011;65656;51.130;13.658;2023-06-10T13:05:03;7.70;;;7.00;;
76731;SDS011;65656;51.130;13.658;2023-06-10T13:09:05;9.18;;;7.32;;
76731;SDS011;65656;51.130;13.658;2023-06-10T13:13:07;7.53;;;6.80;;
76731;SDS011;65656;51.130;13.658;2023-06-10T13:17:09;10.02;;;8.70;;
76731;SDS011;65656;51.130;13.658;2023-06-10T13:21:11;8.38;;;6.88;;
76731;SDS011;65656;51.130;13.658;2023-06-10T13:25:13;8.95;;;8.20;;
76731;SDS011;65656;51.130;13.658;2023-06-10T13:29:15;7.47;;;6.78;;
76731;SDS011;65656;51.130;13.658;2023-06-10T13:33:17;7.28;;;6.68;;
76731;SDS011;65656;51.130;13.658;2023-06-10T13:37:19;8.00;;;7.20;;
76731;SDS011;65656;51.130;13.658;2023-06-10T13:41:21;9.40;;;8.05;;
76731;SDS011;65656;51.130;13.658;2023-06-10T13:45:22;8.13;;;7.35;;
76731;SDS011;65656;51.130;13.658;2023-06-10T13:49:25;9.10;;;8.23;;
76731;SDS011;65656;51.130;13.658;2023-06-10T13:53:26;7.43;;;6.70;;
76731;SDS011;65656;51.130;13.658;2023-06-10T13:57:28;14.35;;;7.43;;
76731;SDS011;65656;51.130;13.658;2023-06-10T14:01:29;5.10;;;4.45;;
76731;SDS011;65656;51.130;13.658;2023-06-10T14:05:32;5.53;;;4.13;;
76731;SDS011;65656;51.130;13.658;2023-06-10T14:09:34;5.40;;;4.90;;
76731;SDS011;65656;51.130;13.658;2023-06-10T14:13:36;7.40;;;5.40;;
76731;SDS011;65656;51.130;13.658;2023-06-10T14:17:37;5.43;;;4.93;;
76731;SDS011;65656;51.130;13.658;2023-06-10T14:21:40;6.25;;;4.43;;
76731;SDS011;65656;51.130;13.658;2023-06-10T14:25:42;6.28;;;5.53;;
76731;SDS011;65656;51.130;13.658;2023-06-10T14:29:43;5.68;;;4.13;;
76731;SDS011;65656;51.130;13.658;2023-06-10T14:33:45;6.40;;;4.55;;
76731;SDS011;65656;51.130;13.658;2023-06-10T14:37:47;6.05;;;4.68;;
76731;SDS011;65656;51.130;13.658;2023-06-10T14:41:49;4.63;;;4.13;;
76731;SDS011;65656;51.130;13.658;2023-06-10T14:45:50;5.47;;;4.25;;
76731;SDS011;65656;51.130;13.658;2023-06-10T14:49:52;8.68;;;6.60;;
76731;SDS011;65656;51.130;13.658;2023-06-10T14:53:55;6.43;;;5.50;;
76731;SDS011;65656;51.130;13.658;2023-06-10T14:57:57;5.70;;;5.20;;
76731;SDS011;65656;51.130;13.658;2023-06-10T15:01:58;9.60;;;5.05;;
76731;SDS011;65656;51.130;13.658;2023-06-10T15:06:00;7.55;;;5.43;;
76731;SDS011;65656;51.130;13.658;2023-06-10T15:10:03;7.43;;;4.53;;
76731;SDS011;65656;51.130;13.658;2023-06-10T15:18:07;5.68;;;5.18;;
76731;SDS011;65656;51.130;13.658;2023-06-10T15:22:08;6.95;;;6.25;;
76731;SDS011;65656;51.130;13.658;2023-06-10T15:26:11;6.78;;;6.07;;
76731;SDS011;65656;51.130;13.658;2023-06-10T15:30:13;11.13;;;6.32;;
76731;SDS011;65656;51.130;13.658;2023-06-10T15:34:14;5.60;;;5.00;;
76731;SDS011;65656;51.130;13.658;2023-06-10T15:38:16;6.68;;;5.50;;
76731;SDS011;65656;51.130;13.658;2023-06-10T15:42:19;7.68;;;6.90;;
76731;SDS011;65656;51.130;13.658;2023-06-10T15:46:20;7.93;;;6.30;;
76731;SDS011;65656;51.130;13.658;2023-06-10T15:50:22;8.15;;;7.30;;
76731;SDS011;65656;51.130;13.658;2023-06-10T15:54:24;7.85;;;7.15;;
76731;SDS011;65656;51.130;13.658;2023-06-10T15:58:26;12.63;;;6.72;;
76731;SDS011;65656;51.130;13.658;2023-06-10T16:02:28;6.95;;;6.25;;
76731;SDS011;65656;51.130;13.658;2023-06-10T16:06:29;8.70;;;6.22;;
76731;SDS011;65656;51.130;13.658;2023-06-10T16:10:31;9.38;;;7.55;;
76731;SDS011;65656;51.130;13.658;2023-06-10T16:14:34;8.27;;;7.43;;
76731;SDS011;65656;51.130;13.658;2023-06-10T16:18:35;7.68;;;6.65;;
76731;SDS011;65656;51.130;13.658;2023-06-10T16:22:36;8.82;;;6.82;;
76731;SDS011;65656;51.130;13.658;2023-06-10T16:26:38;7.10;;;6.30;;
76731;SDS011;65656;51.130;13.658;2023-06-10T16:30:41;12.48;;;7.18;;
76731;SDS011;65656;51.130;13.658;2023-06-10T16:34:43;13.73;;;7.20;;
76731;SDS011;65656;51.130;13.658;2023-06-10T16:38:45;9.35;;;8.45;;
76731;SDS011;65656;51.130;13.658;2023-06-10T16:42:46;10.30;;;7.13;;
76731;SDS011;65656;51.130;13.658;2023-06-10T17:04:41;11.50;;;10.60;;
76731;SDS011;65656;51.130;13.658;2023-06-10T17:08:43;11.27;;;10.38;;
76731;SDS011;65656;51.130;13.658;2023-06-10T17:12:44;11.18;;;10.23;;
76731;SDS011;65656;51.130;13.658;2023-06-10T17:16:46;16.38;;;15.13;;
76731;SDS011;65656;51.130;13.658;2023-06-10T17:20:48;8.27;;;6.65;;
76731;SDS011;65656;51.130;13.658;2023-06-10T17:24:50;12.15;;;11.18;;
76731;SDS011;65656;51.130;13.658;2023-06-10T17:28:51;12.05;;;10.95;;
76731;SDS011;65656;51.130;13.658;2023-06-10T17:32:53;12.70;;;11.20;;
76731;SDS011;65656;51.130;13.658;2023-06-10T17:36:56;14.85;;;12.95;;
76731;SDS011;65656;51.130;13.658;2023-06-10T17:40:58;14.15;;;10.68;;
76731;SDS011;65656;51.130;13.658;2023-06-10T17:44:59;14.80;;;13.65;;
76731;SDS011;65656;51.130;13.658;2023-06-10T17:49:01;14.10;;;9.38;;
76731;SDS011;65656;51.130;13.658;2023-06-10T17:53:04;13.77;;;12.38;;
76731;SDS011;65656;51.130;13.658;2023-06-10T17:57:05;15.63;;;13.88;;
76731;SDS011;65656;51.130;13.658;2023-06-10T18:01:07;17.08;;;15.65;;
76731;SDS011;65656;51.130;13.658;2023-06-10T18:05:09;12.00;;;10.90;;
76731;SDS011;65656;51.130;13.658;2023-06-10T18:09:12;12.07;;;10.82;;
76731;SDS011;65656;51.130;13.658;2023-06-10T18:13:14;12.43;;;11.32;;
76731;SDS011;65656;51.130;13.658;2023-06-10T18:17:16;13.00;;;11.73;;
76731;SDS011;65656;51.130;13.658;2023-06-10T18:21:17;11.15;;;10.05;;
76731;SDS011;65656;51.130;13.658;2023-06-10T18:25:20;15.95;;;14.68;;
76731;SDS011;65656;51.130;13.658;2023-06-10T18:29:22;14.18;;;12.88;;
76731;SDS011;65656;51.130;13.658;2023-06-10T18:33:23;16.48;;;15.10;;
76731;SDS011;65656;51.130;13.658;2023-06-10T18:37:26;13.23;;;12.07;;
76731;SDS011;65656;51.130;13.658;2023-06-10T18:41:28;14.38;;;13.15;;
76731;SDS011;65656;51.130;13.658;2023-06-10T18:45:30;13.75;;;12.73;;
76731;SDS011;65656;51.130;13.658;2023-06-10T18:49:32;13.00;;;11.90;;
76731;SDS011;65656;51.130;13.658;2023-06-10T18:53:33;14.43;;;13.10;;
76731;SDS011;65656;51.130;13.658;2023-06-10T18:57:36;12.75;;;11.65;;
76731;SDS011;65656;51.130;13.658;2023-06-10T19:01:38;9.52;;;8.70;;
76731;SDS011;65656;51.130;13.658;2023-06-10T19:05:39;16.15;;;14.85;;
76731;SDS011;65656;51.130;13.658;2023-06-10T19:09:41;17.52;;;16.27;;
76731;SDS011;65656;51.130;13.658;2023-06-10T19:13:44;16.83;;;15.38;;
76731;SDS011;65656;51.130;13.658;2023-06-10T19:17:45;17.55;;;16.35;;
76731;SDS011;65656;51.130;13.658;2023-06-10T19:21:47;18.70;;;17.30;;
76731;SDS011;65656;51.130;13.658;2023-06-10T19:25:48;11.93;;;10.68;;
76731;SDS011;65656;51.130;13.658;2023-06-10T19:29:51;18.38;;;16.85;;
76731;SDS011;65656;51.130;13.658;2023-06-10T19:33:52;20.15;;;18.55;;
76731;SDS011;65656;51.130;13.658;2023-06-10T19:37:54;23.08;;;21.52;;
76731;SDS011;65656;51.130;13.658;2023-06-10T19:41:55;20.27;;;18.67;;
76731;SDS011;65656;51.130;13.658;2023-06-10T19:45:58;16.67;;;15.27;;
76731;SDS011;65656;51.130;13.658;2023-06-10T19:50:00;14.63;;;13.32;;
76731;SDS011;65656;51.130;13.658;2023-06-10T19:54:01;23.08;;;21.08;;
76731;SDS011;65656;51.130;13.658;2023-06-10T19:58:03;20.88;;;18.95;;
76731;SDS011;65656;51.130;13.658;2023-06-10T20:02:06;16.23;;;14.65;;
76731;SDS011;65656;51.130;13.658;2023-06-10T20:06:08;26.30;;;24.02;;
76731;SDS011;65656;51.130;13.658;2023-06-10T20:10:10;25.35;;;23.27;;
76731;SDS011;65656;51.130;13.658;2023-06-10T20:14:11;22.98;;;20.77;;
76731;SDS011;65656;51.130;13.658;2023-06-10T20:18:15;35.00;;;32.47;;
76731;SDS011;65656;51.130;13.658;2023-06-10T20:22:16;24.90;;;22.45;;
76731;SDS011;65656;51.130;13.658;2023-06-10T20:26:18;26.10;;;23.90;;
76731;SDS011;65656;51.130;13.658;2023-06-10T20:30:19;24.95;;;22.85;;
76731;SDS011;65656;51.130;13.658;2023-06-10T20:34:22;21.33;;;19.30;;
76731;SDS011;65656;51.130;13.658;2023-06-10T20:38:24;23.65;;;20.95;;
76731;SDS011;65656;51.130;13.658;2023-06-10T20:42:25;30.58;;;28.10;;
76731;SDS011;65656;51.130;13.658;2023-06-10T20:46:27;20.58;;;18.98;;
76731;SDS011;65656;51.130;13.658;2023-06-10T20:50:30;17.63;;;15.90;;
76731;SDS011;65656;51.130;13.658;2023-06-10T20:54:31;22.45;;;20.75;;
76731;SDS011;65656;51.130;13.658;2023-06-10T20:58:33;21.35;;;19.63;;
76731;SDS011;65656;51.130;13.658;2023-06-10T21:02:34;20.85;;;19.10;;
76731;SDS011;65656;51.130;13.658;2023-06-10T21:06:37;22.27;;;20.38;;
76731;SDS011;65656;51.130;13.658;2023-06-10T21:10:39;18.70;;;16.08;;
76731;SDS011;65656;51.130;13.658;2023-06-10T21:14:40;22.48;;;20.67;;
76731;SDS011;65656;51.130;13.658;2023-06-10T21:18:42;14.93;;;13.43;;
76731;SDS011;65656;51.130;13.658;2023-06-10T21:22:44;18.80;;;17.23;;
76731;SDS011;65656;51.130;13.658;2023-06-10T21:26:46;22.83;;;21.02;;
76731;SDS011;65656;51.130;13.658;2023-06-10T21:30:48;18.38;;;16.67;;
76731;SDS011;65656;51.130;13.658;2023-06-10T21:34:50;28.38;;;26.52;;
76731;SDS011;65656;51.130;13.658;2023-06-10T21:38:52;20.23;;;18.38;;
76731;SDS011;65656;51.130;13.658;2023-06-10T21:42:54;26.35;;;24.45;;
76731;SDS011;65656;51.130;13.658;2023-06-10T21:46:55;20.00;;;18.30;;
76731;SDS011;65656;51.130;13.658;2023-06-10T21:50:57;25.38;;;23.63;;
76731;SDS011;65656;51.130;13.658;2023-06-10T21:55:00;17.48;;;15.80;;
76731;SDS011;65656;51.130;13.658;2023-06-10T21:59:02;19.38;;;17.58;;
76731;SDS011;65656;51.130;13.658;2023-06-10T22:03:03;23.27;;;21.50;;
76731;SDS011;65656;51.130;13.658;2023-06-10T22:07:05;21.63;;;20.02;;
76731;SDS011;65656;51.130;13.658;2023-06-10T22:11:08;17.95;;;16.48;;
76731;SDS011;65656;51.130;13.658;2023-06-10T22:15:10;17.70;;;16.38;;
76731;SDS011;65656;51.130;13.658;2023-06-10T22:19:12;17.70;;;16.30;;
76731;SDS011;65656;51.130;13.658;2023-06-10T22:23:17;19.00;;;17.27;;
76731;SDS011;65656;51.130;13.658;2023-06-10T22:27:20;17.70;;;16.30;;
76731;SDS011;65656;51.130;13.658;2023-06-10T22:31:22;20.70;;;19.25;;
76731;SDS011;65656;51.130;13.658;2023-06-10T22:35:23;22.80;;;21.40;;
76731;SDS011;65656;51.130;13.658;2023-06-10T22:39:25;16.50;;;15.35;;
76731;SDS011;65656;51.130;13.658;2023-06-10T22:43:28;18.23;;;16.45;;
76731;SDS011;65656;51.130;13.658;2023-06-10T22:47:29;16.08;;;14.95;;
76731;SDS011;65656;51.130;13.658;2023-06-10T22:51:31;15.30;;;14.05;;
76731;SDS011;65656;51.130;13.658;2023-06-10T22:55:33;19.75;;;18.42;;
76731;SDS011;65656;51.130;13.658;2023-06-10T22:59:35;16.42;;;15.15;;
76731;SDS011;65656;51.130;13.658;2023-06-10T23:03:37;15.68;;;14.38;;
76731;SDS011;65656;51.130;13.658;2023-06-10T23:07:38;24.45;;;22.90;;
76731;SDS011;65656;51.130;13.658;2023-06-10T23:11:40;16.63;;;15.32;;
76731;SDS011;65656;51.130;13.658;2023-06-10T23:15:43;16.73;;;15.63;;
76731;SDS011;65656;51.130;13.658;2023-06-10T23:19:44;9.40;;;8.45;;
76731;SDS011;65656;51.130;13.658;2023-06-10T23:23:46;16.20;;;14.93;;
76731;SDS011;65656;51.130;13.658;2023-06-10T23:27:47;17.52;;;16.25;;
76731;SDS011;65656;51.130;13.658;2023-06-10T23:31:50;15.45;;;14.43;;
76731;SDS011;65656;51.130;13.658;2023-06-10T23:35:52;16.38;;;15.27;;
76731;SDS011;65656;51.130;13.658;2023-06-10T23:39:54;14.15;;;13.23;;
76731;SDS011;65656;51.130;13.658;2023-06-10T23:43:55;17.55;;;16.17;;
76731;SDS011;65656;51.130;13.658;2023-06-10T23:47:58;17.15;;;16.05;;
76731;SDS011;65656;51.130;13.658;2023-06-10T23:52:00;16.63;;;15.50;;
76731;SDS011;65656;51.130;13.658;2023-06-10T23:56:02;15.82;;;14.70;;
